sensor_id;sensor_type;location;lat;lon;timestamp;temperature;humidity
47520;DHT22;33252;48.122;11.538;2024-03-08T00:00:34;1.50;99.90
47520;DHT22;33252;48.122;11.538;2024-03-08T00:03:00;1.50;99.90
47520;DHT22;33252;48.122;11.538;2024-03-08T00:05:28;1.50;99.90
47520;DHT22;33252;48.122;11.538;2024-03-08T00:07:54;1.40;99.90
47520;DHT22;33252;48.122;11.538;2024-03-08T00:10:19;1.50;99.90
47520;DHT22;33252;48.122;11.538;2024-03-08T00:12:46;1.50;99.90
47520;DHT22;33252;48.122;11.538;2024-03-08T00:15:13;1.40;99.90
47520;DHT22;33252;48.122;11.538;2024-03-08T00:17:43;1.40;99.90
47520;DHT22;33252;48.122;11.538;2024-03-08T00:20:09;1.40;99.90
47520;DHT22;33252;48.122;11.538;2024-03-08T00:22:36;1.30;99.90
47520;DHT22;33252;48.122;11.538;2024-03-08T00:25:02;1.50;99.90
47520;DHT22;33252;48.122;11.538;2024-03-08T00:27:28;1.40;99.90
47520;DHT22;33252;48.122;11.538;2024-03-08T00:29:55;1.40;99.90
47520;DHT22;33252;48.122;11.538;2024-03-08T00:32:21;1.40;99.90
47520;DHT22;33252;48.122;11.538;2024-03-08T00:34:49;1.30;99.90
47520;DHT22;33252;48.122;11.538;2024-03-08T00:37:17;1.30;99.90
47520;DHT22;33252;48.122;11.538;2024-03-08T00:39:43;1.30;99.90
47520;DHT22;33252;48.122;11.538;2024-03-08T00:42:08;1.30;99.90
47520;DHT22;33252;48.122;11.538;2024-03-08T00:44:34;1.30;99.90
47520;DHT22;33252;48.122;11.538;2024-03-08T00:46:59;1.30;99.90
47520;DHT22;33252;48.122;11.538;2024-03-08T00:49:25;1.30;99.90
47520;DHT22;33252;48.122;11.538;2024-03-08T00:51:51;1.30;99.90
47520;DHT22;33252;48.122;11.538;2024-03-08T00:54:16;1.20;99.90
47520;DHT22;33252;48.122;11.538;2024-03-08T00:56:42;1.10;99.90
47520;DHT22;33252;48.122;11.538;2024-03-08T00:59:07;1.20;99.90
47520;DHT22;33252;48.122;11.538;2024-03-08T01:01:33;1.10;99.90
47520;DHT22;33252;48.122;11.538;2024-03-08T01:03:59;1.20;99.90
47520;DHT22;33252;48.122;11.538;2024-03-08T01:06:24;1.20;99.90
47520;DHT22;33252;48.122;11.538;2024-03-08T01:08:50;1.20;99.90
47520;DHT22;33252;48.122;11.538;2024-03-08T01:11:17;1.20;99.90
47520;DHT22;33252;48.122;11.538;2024-03-08T01:13:43;1.20;99.90
47520;DHT22;33252;48.122;11.538;2024-03-08T01:16:09;1.30;99.90
47520;DHT22;33252;48.122;11.538;2024-03-08T01:18:35;1.20;99.90
47520;DHT22;33252;48.122;11.538;2024-03-08T01:21:01;1.20;99.90
47520;DHT22;33252;48.122;11.538;2024-03-08T01:23:26;1.20;99.90
47520;DHT22;33252;48.122;11.538;2024-03-08T01:25:52;1.20;99.90
47520;DHT22;33252;48.122;11.538;2024-03-08T01:28:23;1.20;99.90
47520;DHT22;33252;48.122;11.538;2024-03-08T01:30:49;1.10;99.90
47520;DHT22;33252;48.122;11.538;2024-03-08T01:33:15;1.10;99.90
47520;DHT22;33252;48.122;11.538;2024-03-08T01:35:41;1.10;99.90
47520;DHT22;33252;48.122;11.538;2024-03-08T01:38:06;1.10;99.90
47520;DHT22;33252;48.122;11.538;2024-03-08T01:40:32;1.10;99.90
47520;DHT22;33252;48.122;11.538;2024-03-08T01:43:21;1.10;99.90
47520;DHT22;33252;48.122;11.538;2024-03-08T01:45:48;1.00;99.90
47520;DHT22;33252;48.122;11.538;2024-03-08T01:48:17;1.00;99.90
47520;DHT22;33252;48.122;11.538;2024-03-08T01:50:43;1.00;99.90
47520;DHT22;33252;48.122;11.538;2024-03-08T01:53:10;1.00;99.90
47520;DHT22;33252;48.122;11.538;2024-03-08T01:55:37;1.10;99.90
47520;DHT22;33252;48.122;11.538;2024-03-08T01:58:05;1.10;99.90
47520;DHT22;33252;48.122;11.538;2024-03-08T02:00:32;1.10;99.90
47520;DHT22;33252;48.122;11.538;2024-03-08T02:02:58;1.00;99.90
47520;DHT22;33252;48.122;11.538;2024-03-08T02:05:24;1.00;99.90
47520;DHT22;33252;48.122;11.538;2024-03-08T02:07:49;1.00;99.90
47520;DHT22;33252;48.122;11.538;2024-03-08T02:10:15;0.90;99.90
47520;DHT22;33252;48.122;11.538;2024-03-08T02:12:41;1.00;99.90
47520;DHT22;33252;48.122;11.538;2024-03-08T02:15:07;0.90;99.90
47520;DHT22;33252;48.122;11.538;2024-03-08T02:17:33;0.90;99.90
47520;DHT22;33252;48.122;11.538;2024-03-08T02:20:01;1.00;99.90
47520;DHT22;33252;48.122;11.538;2024-03-08T02:22:28;0.90;99.90
47520;DHT22;33252;48.122;11.538;2024-03-08T02:24:56;0.80;99.90
47520;DHT22;33252;48.122;11.538;2024-03-08T02:27:25;0.90;99.90
47520;DHT22;33252;48.122;11.538;2024-03-08T02:29:52;0.90;99.90
47520;DHT22;33252;48.122;11.538;2024-03-08T02:32:24;0.90;99.90
47520;DHT22;33252;48.122;11.538;2024-03-08T02:34:50;0.80;99.90
47520;DHT22;33252;48.122;11.538;2024-03-08T02:37:16;0.80;99.90
47520;DHT22;33252;48.122;11.538;2024-03-08T02:39:43;0.80;99.90
47520;DHT22;33252;48.122;11.538;2024-03-08T02:42:08;0.70;99.90
47520;DHT22;33252;48.122;11.538;2024-03-08T02:44:34;0.70;99.90
47520;DHT22;33252;48.122;11.538;2024-03-08T02:47:00;0.80;99.90
47520;DHT22;33252;48.122;11.538;2024-03-08T02:49:26;0.80;99.90
47520;DHT22;33252;48.122;11.538;2024-03-08T02:51:52;0.80;99.90
47520;DHT22;33252;48.122;11.538;2024-03-08T02:54:18;0.80;99.90
47520;DHT22;33252;48.122;11.538;2024-03-08T02:56:45;0.80;99.90
47520;DHT22;33252;48.122;11.538;2024-03-08T02:59:12;0.80;99.90
47520;DHT22;33252;48.122;11.538;2024-03-08T03:01:38;0.80;99.90
47520;DHT22;33252;48.122;11.538;2024-03-08T03:04:04;0.90;99.90
47520;DHT22;33252;48.122;11.538;2024-03-08T03:06:30;0.90;99.90
47520;DHT22;33252;48.122;11.538;2024-03-08T03:08:57;0.80;99.90
47520;DHT22;33252;48.122;11.538;2024-03-08T03:11:23;0.70;99.90
47520;DHT22;33252;48.122;11.538;2024-03-08T03:13:48;0.70;99.90
47520;DHT22;33252;48.122;11.538;2024-03-08T03:16:18;0.60;99.90
47520;DHT22;33252;48.122;11.538;2024-03-08T03:18:47;0.50;99.90
47520;DHT22;33252;48.122;11.538;2024-03-08T03:21:13;0.60;99.90
47520;DHT22;33252;48.122;11.538;2024-03-08T03:23:39;0.60;99.90
47520;DHT22;33252;48.122;11.538;2024-03-08T03:26:06;0.60;99.90
47520;DHT22;33252;48.122;11.538;2024-03-08T03:28:36;0.60;99.90
47520;DHT22;33252;48.122;11.538;2024-03-08T03:31:07;0.60;99.90
47520;DHT22;33252;48.122;11.538;2024-03-08T03:33:33;0.60;99.90
47520;DHT22;33252;48.122;11.538;2024-03-08T03:36:02;0.60;99.90
47520;DHT22;33252;48.122;11.538;2024-03-08T03:38:28;0.60;99.90
47520;DHT22;33252;48.122;11.538;2024-03-08T03:40:53;0.60;99.90
47520;DHT22;33252;48.122;11.538;2024-03-08T03:43:25;0.50;99.90
47520;DHT22;33252;48.122;11.538;2024-03-08T03:45:51;0.50;99.90
47520;DHT22;33252;48.122;11.538;2024-03-08T03:48:16;0.40;99.90
47520;DHT22;33252;48.122;11.538;2024-03-08T03:50:42;0.50;99.90
47520;DHT22;33252;48.122;11.538;2024-03-08T03:53:08;0.40;99.90
47520;DHT22;33252;48.122;11.538;2024-03-08T03:55:34;0.40;99.90
47520;DHT22;33252;48.122;11.538;2024-03-08T03:58:00;0.50;99.90
47520;DHT22;33252;48.122;11.538;2024-03-08T04:00:27;0.50;99.90
47520;DHT22;33252;48.122;11.538;2024-03-08T04:02:52;0.50;99.90
47520;DHT22;33252;48.122;11.538;2024-03-08T04:05:18;0.50;99.90
47520;DHT22;33252;48.122;11.538;2024-03-08T04:07:44;0.50;99.90
47520;DHT22;33252;48.122;11.538;2024-03-08T04:10:11;0.40;99.90
47520;DHT22;33252;48.122;11.538;2024-03-08T04:12:37;0.30;99.90
47520;DHT22;33252;48.122;11.538;2024-03-08T04:15:03;0.40;99.90
47520;DHT22;33252;48.122;11.538;2024-03-08T04:17:30;0.40;99.90
47520;DHT22;33252;48.122;11.538;2024-03-08T04:19:56;0.40;99.90
47520;DHT22;33252;48.122;11.538;2024-03-08T04:22:22;0.30;99.90
47520;DHT22;33252;48.122;11.538;2024-03-08T04:24:48;0.30;99.90
47520;DHT22;33252;48.122;11.538;2024-03-08T04:27:13;0.40;99.90
47520;DHT22;33252;48.122;11.538;2024-03-08T04:29:42;0.30;99.90
47520;DHT22;33252;48.122;11.538;2024-03-08T04:32:08;0.40;99.90
47520;DHT22;33252;48.122;11.538;2024-03-08T04:34:34;0.30;99.90
47520;DHT22;33252;48.122;11.538;2024-03-08T04:37:02;0.30;99.90
47520;DHT22;33252;48.122;11.538;2024-03-08T04:39:30;0.30;99.90
47520;DHT22;33252;48.122;11.538;2024-03-08T04:42:00;0.30;99.90
47520;DHT22;33252;48.122;11.538;2024-03-08T04:44:30;0.20;99.90
47520;DHT22;33252;48.122;11.538;2024-03-08T04:46:55;0.30;99.90
47520;DHT22;33252;48.122;11.538;2024-03-08T04:49:21;0.30;99.90
47520;DHT22;33252;48.122;11.538;2024-03-08T04:51:48;0.30;99.90
47520;DHT22;33252;48.122;11.538;2024-03-08T04:54:13;0.30;99.90
47520;DHT22;33252;48.122;11.538;2024-03-08T04:56:39;0.30;99.90
47520;DHT22;33252;48.122;11.538;2024-03-08T04:59:04;0.30;99.90
47520;DHT22;33252;48.122;11.538;2024-03-08T05:01:33;0.30;99.90
47520;DHT22;33252;48.122;11.538;2024-03-08T05:03:59;0.30;99.90
47520;DHT22;33252;48.122;11.538;2024-03-08T05:06:24;0.30;99.90
47520;DHT22;33252;48.122;11.538;2024-03-08T05:08:50;0.30;99.90
47520;DHT22;33252;48.122;11.538;2024-03-08T05:11:16;0.30;99.90
47520;DHT22;33252;48.122;11.538;2024-03-08T05:13:41;0.30;99.90
47520;DHT22;33252;48.122;11.538;2024-03-08T05:16:07;0.30;99.90
47520;DHT22;33252;48.122;11.538;2024-03-08T05:18:33;0.30;99.90
47520;DHT22;33252;48.122;11.538;2024-03-08T05:20:59;0.30;99.90
47520;DHT22;33252;48.122;11.538;2024-03-08T05:23:24;0.30;99.90
47520;DHT22;33252;48.122;11.538;2024-03-08T05:25:50;0.40;99.90
47520;DHT22;33252;48.122;11.538;2024-03-08T05:28:16;0.40;99.90
47520;DHT22;33252;48.122;11.538;2024-03-08T05:30:41;0.30;99.90
47520;DHT22;33252;48.122;11.538;2024-03-08T05:33:07;0.40;99.90
47520;DHT22;33252;48.122;11.538;2024-03-08T05:35:36;0.30;99.90
47520;DHT22;33252;48.122;11.538;2024-03-08T05:38:02;0.40;99.90
47520;DHT22;33252;48.122;11.538;2024-03-08T05:40:27;0.50;99.90
47520;DHT22;33252;48.122;11.538;2024-03-08T05:42:59;0.40;99.90
47520;DHT22;33252;48.122;11.538;2024-03-08T05:45:25;0.40;99.90
47520;DHT22;33252;48.122;11.538;2024-03-08T05:47:51;0.40;99.90
47520;DHT22;33252;48.122;11.538;2024-03-08T05:50:17;0.50;99.90
47520;DHT22;33252;48.122;11.538;2024-03-08T05:52:43;0.50;99.90
47520;DHT22;33252;48.122;11.538;2024-03-08T05:55:09;0.60;99.90
47520;DHT22;33252;48.122;11.538;2024-03-08T05:57:35;0.60;99.90
47520;DHT22;33252;48.122;11.538;2024-03-08T06:00:05;0.60;99.90
47520;DHT22;33252;48.122;11.538;2024-03-08T06:02:31;0.60;99.90
47520;DHT22;33252;48.122;11.538;2024-03-08T06:04:56;0.70;99.90
47520;DHT22;33252;48.122;11.538;2024-03-08T06:07:22;0.70;99.90
47520;DHT22;33252;48.122;11.538;2024-03-08T06:09:47;0.70;99.90
47520;DHT22;33252;48.122;11.538;2024-03-08T06:12:14;0.80;99.90
47520;DHT22;33252;48.122;11.538;2024-03-08T06:14:44;0.80;99.90
47520;DHT22;33252;48.122;11.538;2024-03-08T06:17:10;0.80;99.90
47520;DHT22;33252;48.122;11.538;2024-03-08T06:19:36;0.80;99.90
47520;DHT22;33252;48.122;11.538;2024-03-08T06:22:02;0.80;99.90
47520;DHT22;33252;48.122;11.538;2024-03-08T06:24:31;0.70;99.90
47520;DHT22;33252;48.122;11.538;2024-03-08T06:26:56;0.80;99.90
47520;DHT22;33252;48.122;11.538;2024-03-08T06:29:22;0.80;99.90
47520;DHT22;33252;48.122;11.538;2024-03-08T06:31:49;0.80;99.90
47520;DHT22;33252;48.122;11.538;2024-03-08T06:34:15;0.90;99.90
47520;DHT22;33252;48.122;11.538;2024-03-08T06:36:41;0.80;99.90
47520;DHT22;33252;48.122;11.538;2024-03-08T06:39:06;0.90;99.90
47520;DHT22;33252;48.122;11.538;2024-03-08T06:41:36;1.00;99.90
47520;DHT22;33252;48.122;11.538;2024-03-08T06:44:01;1.00;99.90
47520;DHT22;33252;48.122;11.538;2024-03-08T06:46:27;1.00;99.90
47520;DHT22;33252;48.122;11.538;2024-03-08T06:48:53;1.10;99.90
47520;DHT22;33252;48.122;11.538;2024-03-08T06:51:19;1.10;99.90
47520;DHT22;33252;48.122;11.538;2024-03-08T06:53:45;1.10;99.90
47520;DHT22;33252;48.122;11.538;2024-03-08T06:56:10;1.00;99.90
47520;DHT22;33252;48.122;11.538;2024-03-08T06:58:36;1.10;99.90
47520;DHT22;33252;48.122;11.538;2024-03-08T07:01:02;1.20;99.90
47520;DHT22;33252;48.122;11.538;2024-03-08T07:03:30;1.30;99.90
47520;DHT22;33252;48.122;11.538;2024-03-08T07:05:57;1.20;99.90
47520;DHT22;33252;48.122;11.538;2024-03-08T07:08:23;1.30;99.90
47520;DHT22;33252;48.122;11.538;2024-03-08T07:10:49;1.30;99.90
47520;DHT22;33252;48.122;11.538;2024-03-08T07:13:15;1.30;99.90
47520;DHT22;33252;48.122;11.538;2024-03-08T07:15:43;1.40;99.90
47520;DHT22;33252;48.122;11.538;2024-03-08T07:18:08;1.40;99.90
47520;DHT22;33252;48.122;11.538;2024-03-08T07:20:34;1.40;99.90
47520;DHT22;33252;48.122;11.538;2024-03-08T07:23:00;1.40;99.90
47520;DHT22;33252;48.122;11.538;2024-03-08T07:25:26;1.40;99.90
47520;DHT22;33252;48.122;11.538;2024-03-08T07:27:55;1.40;99.90
47520;DHT22;33252;48.122;11.538;2024-03-08T07:30:25;1.30;99.90
47520;DHT22;33252;48.122;11.538;2024-03-08T07:33:10;1.20;99.90
47520;DHT22;33252;48.122;11.538;2024-03-08T07:35:39;1.20;99.90
47520;DHT22;33252;48.122;11.538;2024-03-08T07:38:06;1.30;99.90
47520;DHT22;33252;48.122;11.538;2024-03-08T07:40:35;1.20;99.90
47520;DHT22;33252;48.122;11.538;2024-03-08T07:43:01;1.20;99.90
47520;DHT22;33252;48.122;11.538;2024-03-08T07:45:27;1.30;99.90
47520;DHT22;33252;48.122;11.538;2024-03-08T07:47:53;1.40;99.90
47520;DHT22;33252;48.122;11.538;2024-03-08T07:50:19;1.20;99.90
47520;DHT22;33252;48.122;11.538;2024-03-08T07:52:44;1.30;99.90
47520;DHT22;33252;48.122;11.538;2024-03-08T07:55:10;1.40;99.90
47520;DHT22;33252;48.122;11.538;2024-03-08T07:57:35;1.50;99.90
47520;DHT22;33252;48.122;11.538;2024-03-08T08:00:07;1.40;99.90
47520;DHT22;33252;48.122;11.538;2024-03-08T08:02:34;1.60;99.90
47520;DHT22;33252;48.122;11.538;2024-03-08T08:05:00;1.70;99.90
47520;DHT22;33252;48.122;11.538;2024-03-08T08:07:26;1.80;99.90
47520;DHT22;33252;48.122;11.538;2024-03-08T08:09:53;1.90;99.90
47520;DHT22;33252;48.122;11.538;2024-03-08T08:12:18;2.00;99.90
47520;DHT22;33252;48.122;11.538;2024-03-08T08:14:44;2.00;99.90
47520;DHT22;33252;48.122;11.538;2024-03-08T08:17:09;2.10;99.90
47520;DHT22;33252;48.122;11.538;2024-03-08T08:19:35;2.20;99.90
47520;DHT22;33252;48.122;11.538;2024-03-08T08:22:01;2.20;99.90
47520;DHT22;33252;48.122;11.538;2024-03-08T08:24:29;2.30;99.90
47520;DHT22;33252;48.122;11.538;2024-03-08T08:26:55;2.30;99.90
47520;DHT22;33252;48.122;11.538;2024-03-08T08:29:21;2.40;99.90
47520;DHT22;33252;48.122;11.538;2024-03-08T08:31:48;2.40;99.90
47520;DHT22;33252;48.122;11.538;2024-03-08T08:34:15;2.30;99.90
47520;DHT22;33252;48.122;11.538;2024-03-08T08:36:42;2.40;99.90
47520;DHT22;33252;48.122;11.538;2024-03-08T08:39:07;2.40;99.90
47520;DHT22;33252;48.122;11.538;2024-03-08T08:41:39;2.50;99.90
47520;DHT22;33252;48.122;11.538;2024-03-08T08:44:04;2.60;99.90
47520;DHT22;33252;48.122;11.538;2024-03-08T08:46:38;2.80;99.90
47520;DHT22;33252;48.122;11.538;2024-03-08T08:49:04;2.80;99.90
47520;DHT22;33252;48.122;11.538;2024-03-08T08:51:30;2.90;99.90
47520;DHT22;33252;48.122;11.538;2024-03-08T08:53:58;3.10;99.90
47520;DHT22;33252;48.122;11.538;2024-03-08T08:56:24;3.20;99.90
47520;DHT22;33252;48.122;11.538;2024-03-08T08:58:51;3.20;99.90
47520;DHT22;33252;48.122;11.538;2024-03-08T09:01:16;3.20;99.90
47520;DHT22;33252;48.122;11.538;2024-03-08T09:03:43;3.20;99.90
47520;DHT22;33252;48.122;11.538;2024-03-08T09:06:12;3.20;99.90
47520;DHT22;33252;48.122;11.538;2024-03-08T09:08:38;3.20;99.90
47520;DHT22;33252;48.122;11.538;2024-03-08T09:11:04;3.30;99.90
47520;DHT22;33252;48.122;11.538;2024-03-08T09:13:31;3.40;99.90
47520;DHT22;33252;48.122;11.538;2024-03-08T09:15:58;3.40;99.90
47520;DHT22;33252;48.122;11.538;2024-03-08T09:18:23;3.40;99.90
47520;DHT22;33252;48.122;11.538;2024-03-08T09:20:49;3.50;99.90
47520;DHT22;33252;48.122;11.538;2024-03-08T09:23:19;3.60;99.90
47520;DHT22;33252;48.122;11.538;2024-03-08T09:25:44;3.70;99.90
47520;DHT22;33252;48.122;11.538;2024-03-08T09:28:10;3.80;99.90
47520;DHT22;33252;48.122;11.538;2024-03-08T09:30:37;3.90;99.90
47520;DHT22;33252;48.122;11.538;2024-03-08T09:33:04;3.90;99.90
47520;DHT22;33252;48.122;11.538;2024-03-08T09:35:29;4.00;99.90
47520;DHT22;33252;48.122;11.538;2024-03-08T09:37:55;4.00;99.90
47520;DHT22;33252;48.122;11.538;2024-03-08T09:40:21;4.20;99.90
47520;DHT22;33252;48.122;11.538;2024-03-08T09:42:49;4.30;99.90
47520;DHT22;33252;48.122;11.538;2024-03-08T09:45:16;4.40;99.90
47520;DHT22;33252;48.122;11.538;2024-03-08T09:47:43;4.50;99.90
47520;DHT22;33252;48.122;11.538;2024-03-08T09:50:09;4.50;99.90
47520;DHT22;33252;48.122;11.538;2024-03-08T09:52:38;4.60;99.90
47520;DHT22;33252;48.122;11.538;2024-03-08T09:55:05;4.60;99.90
47520;DHT22;33252;48.122;11.538;2024-03-08T09:57:33;4.60;99.90
47520;DHT22;33252;48.122;11.538;2024-03-08T09:59:59;4.80;99.90
47520;DHT22;33252;48.122;11.538;2024-03-08T10:02:25;5.00;99.90
47520;DHT22;33252;48.122;11.538;2024-03-08T10:04:51;5.00;99.90
47520;DHT22;33252;48.122;11.538;2024-03-08T10:07:19;5.10;99.90
47520;DHT22;33252;48.122;11.538;2024-03-08T10:09:44;5.10;99.90
47520;DHT22;33252;48.122;11.538;2024-03-08T10:12:16;5.20;99.90
47520;DHT22;33252;48.122;11.538;2024-03-08T10:14:42;5.20;99.90
47520;DHT22;33252;48.122;11.538;2024-03-08T10:17:08;5.20;99.90
47520;DHT22;33252;48.122;11.538;2024-03-08T10:19:33;5.20;99.90
47520;DHT22;33252;48.122;11.538;2024-03-08T10:21:59;5.30;99.90
47520;DHT22;33252;48.122;11.538;2024-03-08T10:24:25;5.40;99.90
47520;DHT22;33252;48.122;11.538;2024-03-08T10:27:01;5.40;99.90
47520;DHT22;33252;48.122;11.538;2024-03-08T10:29:33;5.50;99.90
47520;DHT22;33252;48.122;11.538;2024-03-08T10:31:59;5.70;99.90
47520;DHT22;33252;48.122;11.538;2024-03-08T10:34:25;5.70;99.90
47520;DHT22;33252;48.122;11.538;2024-03-08T10:36:51;5.70;99.90
47520;DHT22;33252;48.122;11.538;2024-03-08T10:39:24;5.70;99.90
47520;DHT22;33252;48.122;11.538;2024-03-08T10:41:56;5.80;99.90
47520;DHT22;33252;48.122;11.538;2024-03-08T10:47:03;5.90;99.90
47520;DHT22;33252;48.122;11.538;2024-03-08T10:49:39;6.00;99.90
47520;DHT22;33252;48.122;11.538;2024-03-08T10:52:10;6.10;99.90
47520;DHT22;33252;48.122;11.538;2024-03-08T10:54:38;6.10;99.90
47520;DHT22;33252;48.122;11.538;2024-03-08T10:57:05;6.20;99.90
47520;DHT22;33252;48.122;11.538;2024-03-08T10:59:32;6.30;99.90
47520;DHT22;33252;48.122;11.538;2024-03-08T11:01:59;6.30;99.90
47520;DHT22;33252;48.122;11.538;2024-03-08T11:04:25;6.50;99.90
47520;DHT22;33252;48.122;11.538;2024-03-08T11:06:51;6.50;99.40
47520;DHT22;33252;48.122;11.538;2024-03-08T11:09:30;6.50;99.50
47520;DHT22;33252;48.122;11.538;2024-03-08T11:12:18;6.60;99.00
47520;DHT22;33252;48.122;11.538;2024-03-08T11:14:49;6.60;99.70
47520;DHT22;33252;48.122;11.538;2024-03-08T11:18:01;6.70;99.00
47520;DHT22;33252;48.122;11.538;2024-03-08T11:20:11;6.80;99.70
47520;DHT22;33252;48.122;11.538;2024-03-08T11:22:54;6.90;98.90
47520;DHT22;33252;48.122;11.538;2024-03-08T11:25:40;6.90;99.20
47520;DHT22;33252;48.122;11.538;2024-03-08T11:28:15;7.00;98.90
47520;DHT22;33252;48.122;11.538;2024-03-08T11:30:45;7.10;98.60
47520;DHT22;33252;48.122;11.538;2024-03-08T11:33:14;7.20;98.40
47520;DHT22;33252;48.122;11.538;2024-03-08T11:35:40;7.30;98.10
47520;DHT22;33252;48.122;11.538;2024-03-08T11:38:08;7.30;98.10
47520;DHT22;33252;48.122;11.538;2024-03-08T11:40:34;7.30;97.90
47520;DHT22;33252;48.122;11.538;2024-03-08T11:43:00;7.40;98.40
47520;DHT22;33252;48.122;11.538;2024-03-08T11:45:28;7.60;97.30
47520;DHT22;33252;48.122;11.538;2024-03-08T11:47:54;7.60;97.50
47520;DHT22;33252;48.122;11.538;2024-03-08T11:50:20;7.70;97.00
47520;DHT22;33252;48.122;11.538;2024-03-08T11:52:49;7.70;97.00
47520;DHT22;33252;48.122;11.538;2024-03-08T11:55:15;7.90;97.00
47520;DHT22;33252;48.122;11.538;2024-03-08T11:57:41;8.20;96.90
47520;DHT22;33252;48.122;11.538;2024-03-08T12:00:16;8.40;95.90
47520;DHT22;33252;48.122;11.538;2024-03-08T12:03:04;8.60;96.20
47520;DHT22;33252;48.122;11.538;2024-03-08T12:05:31;8.80;95.10
47520;DHT22;33252;48.122;11.538;2024-03-08T12:07:58;8.90;94.20
47520;DHT22;33252;48.122;11.538;2024-03-08T12:10:24;9.10;94.90
47520;DHT22;33252;48.122;11.538;2024-03-08T12:12:52;9.20;94.10
47520;DHT22;33252;48.122;11.538;2024-03-08T12:15:19;9.00;94.40
47520;DHT22;33252;48.122;11.538;2024-03-08T12:17:49;9.00;95.20
47520;DHT22;33252;48.122;11.538;2024-03-08T12:20:26;8.90;94.60
47520;DHT22;33252;48.122;11.538;2024-03-08T12:22:53;8.70;94.50
47520;DHT22;33252;48.122;11.538;2024-03-08T12:25:21;8.80;95.30
47520;DHT22;33252;48.122;11.538;2024-03-08T12:27:47;8.90;95.40
47520;DHT22;33252;48.122;11.538;2024-03-08T12:30:23;8.80;95.50
47520;DHT22;33252;48.122;11.538;2024-03-08T12:32:56;8.80;95.20
47520;DHT22;33252;48.122;11.538;2024-03-08T12:35:26;8.70;94.60
47520;DHT22;33252;48.122;11.538;2024-03-08T12:37:53;9.00;94.70
47520;DHT22;33252;48.122;11.538;2024-03-08T12:40:28;9.00;94.20
47520;DHT22;33252;48.122;11.538;2024-03-08T12:42:55;9.00;93.90
47520;DHT22;33252;48.122;11.538;2024-03-08T12:45:22;9.30;93.40
47520;DHT22;33252;48.122;11.538;2024-03-08T12:47:52;9.80;93.20
47520;DHT22;33252;48.122;11.538;2024-03-08T12:50:22;9.90;93.10
47520;DHT22;33252;48.122;11.538;2024-03-08T12:52:48;10.00;92.80
47520;DHT22;33252;48.122;11.538;2024-03-08T12:55:17;10.30;91.90
47520;DHT22;33252;48.122;11.538;2024-03-08T12:57:43;10.10;91.90
47520;DHT22;33252;48.122;11.538;2024-03-08T13:00:10;10.10;92.40
47520;DHT22;33252;48.122;11.538;2024-03-08T13:02:45;10.20;92.40
47520;DHT22;33252;48.122;11.538;2024-03-08T13:05:11;10.60;91.50
47520;DHT22;33252;48.122;11.538;2024-03-08T13:07:39;11.70;90.10
47520;DHT22;33252;48.122;11.538;2024-03-08T13:10:06;12.40;86.40
47520;DHT22;33252;48.122;11.538;2024-03-08T13:12:32;14.00;84.70
47520;DHT22;33252;48.122;11.538;2024-03-08T13:14:58;14.70;81.00
47520;DHT22;33252;48.122;11.538;2024-03-08T13:17:23;15.00;79.10
47520;DHT22;33252;48.122;11.538;2024-03-08T13:19:49;14.50;79.50
47520;DHT22;33252;48.122;11.538;2024-03-08T13:22:14;13.70;80.90
47520;DHT22;33252;48.122;11.538;2024-03-08T13:24:45;13.50;82.10
47520;DHT22;33252;48.122;11.538;2024-03-08T13:27:11;14.20;82.20
47520;DHT22;33252;48.122;11.538;2024-03-08T13:29:48;15.30;79.30
47520;DHT22;33252;48.122;11.538;2024-03-08T13:32:17;15.30;77.00
47520;DHT22;33252;48.122;11.538;2024-03-08T13:34:46;16.00;75.10
47520;DHT22;33252;48.122;11.538;2024-03-08T13:37:13;16.40;72.90
47520;DHT22;33252;48.122;11.538;2024-03-08T13:39:41;16.40;72.90
47520;DHT22;33252;48.122;11.538;2024-03-08T13:42:10;16.60;72.10
47520;DHT22;33252;48.122;11.538;2024-03-08T13:44:44;17.30;70.40
47520;DHT22;33252;48.122;11.538;2024-03-08T13:47:12;17.40;70.80
47520;DHT22;33252;48.122;11.538;2024-03-08T13:49:38;17.70;69.80
47520;DHT22;33252;48.122;11.538;2024-03-08T13:52:04;17.30;69.00
47520;DHT22;33252;48.122;11.538;2024-03-08T13:54:29;17.40;70.00
47520;DHT22;33252;48.122;11.538;2024-03-08T13:56:57;16.70;69.60
47520;DHT22;33252;48.122;11.538;2024-03-08T13:59:23;17.00;69.80
47520;DHT22;33252;48.122;11.538;2024-03-08T14:01:49;17.00;69.40
47520;DHT22;33252;48.122;11.538;2024-03-08T14:04:15;17.40;68.90
47520;DHT22;33252;48.122;11.538;2024-03-08T14:06:44;17.30;67.80
47520;DHT22;33252;48.122;11.538;2024-03-08T14:09:11;16.90;69.00
47520;DHT22;33252;48.122;11.538;2024-03-08T14:11:45;16.70;69.10
47520;DHT22;33252;48.122;11.538;2024-03-08T14:14:11;16.70;69.10
47520;DHT22;33252;48.122;11.538;2024-03-08T14:16:39;16.90;68.80
47520;DHT22;33252;48.122;11.538;2024-03-08T14:19:05;16.50;69.00
47520;DHT22;33252;48.122;11.538;2024-03-08T14:21:32;16.70;69.10
47520;DHT22;33252;48.122;11.538;2024-03-08T14:23:57;16.60;68.90
47520;DHT22;33252;48.122;11.538;2024-03-08T14:26:23;16.60;68.90
47520;DHT22;33252;48.122;11.538;2024-03-08T14:28:48;16.40;68.00
47520;DHT22;33252;48.122;11.538;2024-03-08T14:31:17;16.30;68.90
47520;DHT22;33252;48.122;11.538;2024-03-08T14:33:44;16.20;68.90
47520;DHT22;33252;48.122;11.538;2024-03-08T14:36:14;16.60;68.40
47520;DHT22;33252;48.122;11.538;2024-03-08T14:38:42;16.50;67.90
47520;DHT22;33252;48.122;11.538;2024-03-08T14:41:08;16.50;69.10
47520;DHT22;33252;48.122;11.538;2024-03-08T14:43:33;16.40;68.30
47520;DHT22;33252;48.122;11.538;2024-03-08T14:45:59;16.20;69.50
47520;DHT22;33252;48.122;11.538;2024-03-08T14:48:25;16.30;69.00
47520;DHT22;33252;48.122;11.538;2024-03-08T14:50:50;16.10;69.40
47520;DHT22;33252;48.122;11.538;2024-03-08T14:53:16;15.90;69.80
47520;DHT22;33252;48.122;11.538;2024-03-08T14:55:42;15.80;69.50
47520;DHT22;33252;48.122;11.538;2024-03-08T14:58:08;15.30;69.20
47520;DHT22;33252;48.122;11.538;2024-03-08T15:00:34;15.40;70.00
47520;DHT22;33252;48.122;11.538;2024-03-08T15:03:01;15.30;70.20
47520;DHT22;33252;48.122;11.538;2024-03-08T15:05:30;15.30;70.00
47520;DHT22;33252;48.122;11.538;2024-03-08T15:07:57;15.20;69.80
47520;DHT22;33252;48.122;11.538;2024-03-08T15:10:26;14.90;70.00
47520;DHT22;33252;48.122;11.538;2024-03-08T15:12:55;14.80;71.20
47520;DHT22;33252;48.122;11.538;2024-03-08T15:15:21;14.80;70.30
47520;DHT22;33252;48.122;11.538;2024-03-08T15:17:48;14.60;71.20
47520;DHT22;33252;48.122;11.538;2024-03-08T15:20:14;14.80;71.20
47520;DHT22;33252;48.122;11.538;2024-03-08T15:22:49;14.50;72.00
47520;DHT22;33252;48.122;11.538;2024-03-08T15:25:15;14.50;72.60
47520;DHT22;33252;48.122;11.538;2024-03-08T15:27:48;14.30;71.90
47520;DHT22;33252;48.122;11.538;2024-03-08T15:30:14;14.40;72.20